Latest Weather Observations for Horn Island

IDQ60801

Issued at 1:32 pm EST Sunday 20 August 2017 (issued every 30 minutes, with the page automatically refreshed every 10 minutes)

About weather observations | Map of weather stations | Latest weather observations for QLD | Other Formats
Station Details ID: 027058 Name: HORN ISLAND Lat: -10.58 Lon: 142.29 Height: 4.0 m
Data from the previous 72 hours. | See also: Recent months at Horn Island
Date/Time
EST
Temp
°C
App
Temp
°C
Dew
Point
°C
Rel
Hum
%
Delta-T
°C
Wind Press
QNH
hPa
Press
MSL
hPa
Rain since
9am
mm
Dir  Spd
km/h
Gust
km/h
Spd
kts
Gust
kts
20/01:30pm 28.1 25.9 19.6 60 5.5 ESE 30 43 16 23 1012.7 - 0.0
20/01:00pm 28.0 25.5 19.8 61 5.3 ESE 32 44 17 24 1013.3 - 0.0
20/12:30pm 27.8 25.1 19.6 61 5.3 E 33 43 18 23 1013.7 - 0.0
20/12:00pm 29.2 27.8 21.2 62 5.3 E 30 41 16 22 1013.9 1013.9 0.0
20/11:30am 27.9 25.3 19.9 61 5.2 E 33 43 18 23 1014.2 - 0.0
20/11:00am 28.2 26.3 21.0 65 4.8 E 32 44 17 24 1014.6 - 0.0
20/10:30am 27.4 25.1 20.2 65 4.7 ESE 32 48 17 26 1014.6 - 0.0
20/10:00am 27.3 24.8 20.1 64 4.7 E 33 48 18 26 1014.7 - 0.0
20/09:30am 26.8 24.7 20.6 69 4.1 E 32 41 17 22 1014.6 - 0.0
20/09:00am 26.4 24.2 20.3 69 4.0 E 32 44 17 24 1014.5 1014.5 0.0
20/08:30am 25.7 23.1 19.6 69 3.9 ESE 32 44 17 24 1014.3 - 0.0
20/08:00am 25.4 24.7 20.2 73 3.4 ESE 24 32 13 17 1014.1 - 0.0
20/07:30am 24.8 23.5 19.8 74 3.2 ESE 26 35 14 19 1013.9 - 0.0
20/07:00am 24.5 23.2 19.8 75 3.0 ESE 26 39 14 21 1013.6 - 0.0
20/06:30am 24.4 23.9 19.9 76 2.9 ESE 22 35 12 19 1013.2 - 0.0
20/06:00am 24.4 23.5 19.9 76 2.9 ESE 24 35 13 19 1012.8 1012.8 0.0
20/05:30am 24.4 23.0 19.7 75 3.0 ESE 26 35 14 19 1012.6 - 0.0
20/05:00am 24.3 22.9 19.6 75 3.0 ESE 26 37 14 20 1012.2 - 0.0
20/04:43am 24.4 22.4 19.2 73 3.3 ESE 28 46 15 25 1012.3 - 0.0
20/04:30am 24.4 22.6 19.5 74 3.1 ESE 28 37 15 20 1012.3 - 0.0
20/04:00am 24.4 22.0 19.2 73 3.3 ESE 30 41 16 22 1012.4 - 0.0
20/03:30am 24.3 22.3 19.1 73 3.3 ESE 28 41 15 22 1012.5 - 0.0
20/03:00am 24.3 22.8 19.4 74 3.1 ESE 26 37 14 20 1012.5 1012.5 0.0
20/02:30am 24.3 23.3 19.6 75 3.0 ESE 24 35 13 19 1012.6 - 0.0
20/02:00am 24.3 23.8 20.0 77 2.8 ESE 22 30 12 16 1012.9 - 0.0
20/01:30am 24.5 22.9 19.3 73 3.3 ESE 26 35 14 19 1013.1 - 0.0
20/01:00am 24.4 23.3 19.5 74 3.1 ESE 24 32 13 17 1013.5 - 0.0
20/12:30am 24.5 23.3 19.3 73 3.3 ESE 24 41 13 22 1013.7 - 0.0
20/12:00am 24.5 22.9 19.1 72 3.4 ESE 26 35 14 19 1013.8 1013.8 0.0
 
Date/Time
EST
Temp
°C
App
Temp
°C
Dew
Point
°C
Rel
Hum
%
Delta-T
°C
Wind Press
QNH
hPa
Press
MSL
hPa
Rain since
9am
mm
Dir  Spd
km/h
Gust
km/h
Spd
kts
Gust
kts
19/11:30pm 24.6 23.5 19.4 73 3.3 ESE 24 33 13 18 1013.9 - 0.0
19/11:00pm 24.8 22.4 19.2 71 3.6 ESE 30 39 16 21 1013.8 - 0.0
19/10:30pm 24.6 23.1 19.4 73 3.3 ESE 26 33 14 18 1013.9 - 0.0
19/10:00pm 24.7 23.8 19.8 74 3.2 ESE 24 35 13 19 1014.0 - 0.0
19/09:30pm 24.8 24.1 20.3 76 2.9 ESE 24 33 13 18 1013.9 - 0.0
19/09:00pm 24.8 23.5 19.8 74 3.2 ESE 26 35 14 19 1013.7 1013.7 0.0
19/08:30pm 24.9 24.4 19.9 74 3.2 ESE 22 32 12 17 1013.3 - 0.0
19/08:00pm 24.9 24.4 19.9 74 3.2 SE 22 32 12 17 1013.0 - 0.0
19/07:30pm 25.0 23.3 19.8 73 3.4 SE 28 35 15 19 1012.6 - 0.0
19/07:00pm 25.2 23.9 19.8 72 3.5 SE 26 37 14 20 1012.3 - 0.0
19/06:30pm 25.4 23.8 20.0 72 3.5 ESE 28 37 15 20 1012.0 - 0.0
19/06:00pm 25.9 24.4 19.5 68 4.1 ESE 26 39 14 21 1011.8 1011.8 0.0
19/05:30pm 26.4 24.9 19.5 66 4.5 ESE 26 39 14 21 1011.6 - 0.0
19/05:00pm 27.2 25.1 19.8 64 4.8 ESE 30 43 16 23 1011.6 - 0.0
19/04:30pm 27.7 25.1 20.0 63 5.0 ESE 33 48 18 26 1011.5 - 0.0
19/04:00pm 27.8 25.2 19.8 61 5.2 ESE 33 46 18 25 1011.4 - 0.0
19/03:30pm 28.2 24.9 20.0 61 5.4 ESE 37 50 20 27 1011.3 - 0.0
19/03:00pm 28.3 25.5 19.5 59 5.7 ESE 33 48 18 26 1011.4 1011.4 0.0
19/02:30pm 28.5 25.8 19.7 59 5.7 ESE 33 44 18 24 1011.5 - 0.0
19/02:00pm 28.6 26.2 20.3 60 5.5 ESE 33 44 18 24 1011.8 - 0.0
19/01:30pm 28.9 26.3 19.8 58 5.9 ESE 33 43 18 23 1012.2 - 0.0
19/01:00pm 28.7 26.5 19.6 58 5.9 ESE 30 43 16 23 1012.9 - 0.0
19/12:30pm 28.9 25.8 18.9 54 6.5 ESE 33 43 18 23 1013.4 - 0.0
19/12:00pm 28.3 25.4 19.2 57 5.9 ESE 33 43 18 23 1014.1 1014.1 0.0
19/11:30am 28.5 25.1 19.1 56 6.1 ESE 35 44 19 24 1014.4 - 0.0
19/11:00am 28.6 26.1 19.8 59 5.7 ESE 32 41 17 22 1014.5 - 0.0
19/10:30am 28.3 26.0 20.1 61 5.4 ESE 32 41 17 22 1014.5 - 0.0
19/10:00am 27.9 25.6 20.2 63 5.0 ESE 32 44 17 24 1014.6 - 0.0
19/09:30am 27.0 24.9 20.6 68 4.2 ESE 32 41 17 22 1014.4 - 0.0
19/09:00am 26.6 24.5 19.7 66 4.5 ESE 30 39 16 21 1014.2 1014.2 0.0
19/08:30am 26.3 24.6 19.9 68 4.2 ESE 28 39 15 21 1014.0 - 0.0
19/08:00am 25.6 25.1 20.8 75 3.2 ESE 24 33 13 18 1013.8 - 0.0
19/07:30am 25.1 23.9 20.1 74 3.2 ESE 26 37 14 20 1013.7 - 0.0
19/07:00am 24.5 23.8 20.2 77 2.8 ESE 24 33 13 18 1013.4 - 0.0
19/06:30am 24.2 24.0 20.5 80 2.4 ESE 22 30 12 16 1013.0 - 0.0
19/06:00am 23.9 23.7 20.6 82 2.2 ESE 22 32 12 17 1012.7 1012.7 0.0
19/05:30am 23.1 25.2 21.0 88 1.4 SSE 11 15 6 8 1012.6 - 0.0
19/05:00am 23.1 25.2 21.0 88 1.4 S 11 15 6 8 1012.4 - 0.0
19/04:30am 23.2 25.3 20.9 87 1.5 SSE 11 15 6 8 1012.3 - 0.0
19/04:00am 23.5 25.6 21.0 86 1.6 SSE 11 19 6 10 1012.1 - 0.0
19/03:30am 23.8 25.6 21.1 85 1.8 SSE 13 17 7 9 1012.1 - 0.0
19/03:00am 24.2 25.9 20.9 82 2.2 SSE 13 19 7 10 1012.3 1012.3 0.0
19/02:30am 24.2 25.0 20.7 81 2.3 SE 17 24 9 13 1012.3 - 0.0
19/02:00am 24.3 25.2 20.8 81 2.3 SE 17 24 9 13 1012.6 - 0.0
19/01:30am 24.5 24.8 20.8 80 2.4 SE 20 30 11 16 1012.7 - 0.0
19/01:00am 24.4 25.0 21.1 82 2.2 SE 19 24 10 13 1012.9 - 0.0
19/12:30am 24.3 25.8 21.2 83 2.0 SE 15 20 8 11 1013.3 - 0.0
19/12:00am 24.3 25.8 21.2 83 2.0 SSE 15 19 8 10 1013.5 1013.5 0.0
 
Date/Time
EST
Temp
°C
App
Temp
°C
Dew
Point
°C
Rel
Hum
%
Delta-T
°C
Wind Press
QNH
hPa
Press
MSL
hPa
Rain since
9am
mm
Dir  Spd
km/h
Gust
km/h
Spd
kts
Gust
kts
18/11:30pm 24.5 25.6 21.2 82 2.2 SE 17 22 9 12 1013.8 - 0.0
18/11:00pm 24.7 25.7 21.0 80 2.4 SE 17 22 9 12 1013.9 - 0.0
18/10:30pm 24.8 26.2 21.1 80 2.4 SE 15 20 8 11 1014.0 - 0.0
18/10:00pm 25.1 25.1 21.0 78 2.7 SE 22 33 12 18 1014.0 - 0.0
18/09:30pm 25.1 26.2 21.2 79 2.6 SE 17 24 9 13 1013.9 - 0.0
18/09:00pm 25.2 25.7 21.1 78 2.7 SE 20 32 11 17 1013.9 1013.9 0.0
18/08:30pm 25.3 24.1 20.8 76 3.0 SE 28 37 15 20 1013.7 - 0.0
18/08:00pm 25.2 24.4 20.9 77 2.8 SE 26 35 14 19 1013.2 - 0.0
18/07:30pm 25.3 25.3 21.0 77 2.8 SE 22 30 12 16 1012.6 - 0.0
18/07:00pm 25.5 23.9 20.7 75 3.1 SE 30 44 16 24 1012.1 - 0.0
18/06:30pm 25.7 24.1 20.7 74 3.3 SE 30 41 16 22 1011.9 - 0.0
18/06:00pm 26.2 24.9 20.7 71 3.6 ESE 28 41 15 22 1011.7 1011.7 0.0
18/05:30pm 26.8 25.3 20.9 70 3.9 ESE 30 46 16 25 1011.4 - 0.0
18/05:00pm 27.4 26.1 20.7 67 4.4 ESE 28 41 15 22 1011.3 - 0.0
18/04:30pm 28.1 26.6 20.9 65 4.8 ESE 30 41 16 22 1011.1 - 0.0
18/04:00pm 28.5 26.8 20.5 62 5.3 ESE 30 39 16 21 1010.9 - 0.0
18/03:30pm 28.4 26.0 19.9 60 5.6 ESE 32 44 17 24 1010.9 - 0.0
18/03:00pm 28.6 26.1 19.8 59 5.8 SE 32 43 17 23 1010.9 1010.9 0.0
18/02:30pm 28.6 26.8 20.3 60 5.5 SE 30 41 16 22 1011.2 - 0.0
18/02:00pm 28.7 26.1 20.7 62 5.3 ESE 35 46 19 25 1011.5 - 0.0
18/01:30pm 29.2 27.3 20.9 61 5.5 ESE 32 41 17 22 1011.8 - 0.0
18/01:00pm 29.1 27.3 21.1 62 5.3 ESE 32 41 17 22 1012.2 - 0.0
18/12:30pm 28.7 26.5 20.4 60 5.5 ESE 32 44 17 24 1012.5 - 0.0
18/12:00pm 28.3 26.2 19.8 60 5.5 ESE 30 41 16 22 1012.9 1012.9 0.0
18/11:30am 28.7 26.3 20.4 60 5.5 ESE 33 46 18 25 1013.3 - 0.0
18/11:00am 28.4 25.9 20.1 60 5.4 ESE 33 48 18 26 1013.5 - 0.0
18/10:30am 27.9 25.9 20.7 65 4.8 ESE 32 43 17 23 1013.8 - 0.0
18/10:00am 28.0 26.3 20.6 64 4.9 ESE 30 41 16 22 1013.8 - 0.0
18/09:30am 27.4 26.3 20.2 65 4.7 ESE 26 35 14 19 1014.0 - 0.0
18/09:00am 26.6 25.6 20.4 69 4.1 ESE 26 35 14 19 1013.9 1013.9 0.0
18/08:30am 26.4 26.4 20.9 72 3.6 ESE 22 33 12 18 1013.7 - 0.0
18/08:00am 25.2 25.8 21.1 78 2.7 SE 19 30 10 16 1013.3 - 0.0
18/07:30am 24.5 26.0 21.2 82 2.2 SE 15 19 8 10 1013.1 - 0.0
18/07:00am 23.8 25.4 20.7 83 2.0 SE 13 19 7 10 1012.7 - 0.0
18/06:30am 23.9 25.0 20.4 81 2.3 ESE 15 20 8 11 1012.3 - 0.0
18/06:00am 24.0 24.9 20.1 79 2.5 SE 15 20 8 11 1012.0 1012.0 0.0
18/05:30am 24.2 24.3 19.9 77 2.8 ESE 19 28 10 15 1011.8 - 0.0
18/05:00am 24.3 24.4 20.0 77 2.8 ESE 19 28 10 15 1011.6 - 0.0
18/04:30am 24.4 24.7 20.3 78 2.7 ESE 19 26 10 14 1011.5 - 0.0
18/04:00am 24.3 25.4 20.4 79 2.5 SE 15 22 8 12 1011.3 - 0.0
18/03:30am 24.1 24.6 20.0 78 2.6 ESE 17 24 9 13 1011.4 - 0.0
18/03:00am 24.1 24.9 20.6 81 2.3 SE 17 28 9 15 1011.5 1011.5 0.0
18/02:30am 23.9 25.8 20.6 82 2.2 SE 11 17 6 9 1011.6 - 0.0
18/02:00am 23.9 25.2 20.8 83 2.0 SE 15 22 8 12 1011.7 - 0.0
18/01:30am 23.6 25.9 20.7 84 1.9 SSE 9 13 5 7 1011.7 - 0.0
18/01:00am 23.7 25.7 20.8 84 1.9 SSE 11 15 6 8 1011.9 - 0.0
18/12:30am 23.7 25.3 20.8 84 1.9 SSE 13 15 7 8 1012.1 - 0.0
18/12:00am 23.9 26.2 20.6 82 2.2 SSE 9 13 5 7 1012.3 1012.3 0.0
 
Date/Time
EST
Temp
°C
App
Temp
°C
Dew
Point
°C
Rel
Hum
%
Delta-T
°C
Wind Press
QNH
hPa
Press
MSL
hPa
Rain since
9am
mm
Dir  Spd
km/h
Gust
km/h
Spd
kts
Gust
kts
17/11:30pm 24.3 25.1 20.6 80 2.4 SSE 17 28 9 15 1012.5 - 0.0
17/11:00pm 24.3 25.5 20.6 80 2.4 SSE 15 22 8 12 1012.7 - 0.0
17/10:30pm 24.2 26.2 20.7 81 2.3 SSE 11 19 6 10 1012.8 - 0.0
17/10:00pm 24.4 25.5 20.5 79 2.5 SSE 15 20 8 11 1012.7 - 0.0
17/09:30pm 24.8 25.5 20.5 77 2.8 SE 17 24 9 13 1012.7 - 0.0
17/09:00pm 24.8 25.6 20.7 78 2.7 SSE 17 24 9 13 1012.4 1012.4 0.0
17/08:30pm 25.0 26.3 20.9 78 2.7 SE 15 24 8 13 1012.2 - 0.0
17/08:00pm 25.0 25.5 20.9 78 2.7 SE 19 26 10 14 1012.0 - 0.0
17/07:30pm 25.2 25.1 20.7 76 2.9 SE 22 30 12 16 1011.6 - 0.0
17/07:00pm 25.4 25.1 20.4 74 3.3 SE 22 32 12 17 1011.2 - 0.0
17/06:30pm 25.7 24.7 20.5 73 3.4 ESE 26 35 14 19 1011.0 - 0.0
17/06:00pm 26.1 25.2 20.7 72 3.5 SE 26 37 14 20 1010.7 1010.7 0.0
17/05:30pm 26.8 25.9 20.6 69 4.1 ESE 26 39 14 21 1010.4 - 0.0
17/05:00pm 27.0 25.0 20.8 69 4.1 SE 32 41 17 22 1010.3 - 0.0
17/04:30pm 27.6 26.8 20.9 67 4.4 ESE 26 37 14 20 1009.9 - 0.0
17/04:00pm 27.9 25.8 20.5 64 4.9 ESE 32 41 17 22 1010.0 - 0.0
17/03:30pm 28.0 26.0 20.8 65 4.8 ESE 32 43 17 23 1010.0 - 0.0
17/03:00pm 28.8 27.3 20.3 60 5.6 ESE 28 39 15 21 1010.2 1010.2 0.0
17/02:30pm 29.0 27.6 20.4 59 5.7 ESE 28 39 15 21 1010.4 - 0.0
17/02:00pm 28.6 26.4 20.3 60 5.5 ESE 32 48 17 26 1010.6 - 0.0

Other Formats:

Comma delimited format used in spreadsheet applications
http://www.bom.gov.au/fwo/IDQ60801/IDQ60801.94174.axf

JavaScript Object Notation format (JSON) in row-major order
http://www.bom.gov.au/fwo/IDQ60801/IDQ60801.94174.json